map of ZNZ home
Great Circle Mapper logo
ZNZ - Airport
Location
City:  Zanzibar Island, Tanzania
ICAO / IATA:HTZA / ZNZ

Details
Type:Airport (Aerodrome, Airfield)
Use:Public/Civil, International (customs port of entry)
Latitude:613'19"S (-6.222024)
Longitude:3913'30"E (39.224886)
Datum:WGS 1984
Elevation:54 ft (16 m)
Runways:1
Longest:8077 × 148 ft (2462 × 45 m), paved

Time
Time Zone:UTC+3
Local Time:

Weather
METAR:HTZA 150800Z 00000KT 8000M -RA BKN014 BKN080 23/22 Q1019 NOSIG
TAF:HTZA 141600Z 1418/1518 17005KT 9999 FEW018 SCT080
BECMG 1501/1503 21015KT BKN016 FEW018CB BKN080
TEMPO 1503/1510 5000 SHRA
BECMG 1510/1512 15015KT SCT020 BKN080
BECMG 1516/1518 16005KT

Related Locations
Nearby:
Farthest:NHV: 11397 mi / 18342 km
Nuku Hiva, Marquesas Islands, PF

Find:

   beyond  
but within

Other Information
Maps:
NOTAMs:
Links:
Sources:

  
flag of Tanzania   

Sectional Chart

Flight Planning
at skyvector.com

Satellite Image

Google Maps Satellite View

 

Copyright © 2004-2014 Karl L. Swartz. All rights reserved.
The Great Circle Mapper name and logo are trademarks of the Great Circle Mapper.
All other trademarks mentioned herein belong to their respective owners.
Please see credits for attibutions and further copyright information.

  Follow gcmap on Facebook Follow gcmap on Twitter

hCard Microformat

Geo Microformat